Time;durP1;ratioP1;P1;durP2;ratioP2;P2;SDS_P1;SDS_P2;PMS_P1;PMS_P2;Temp;Humidity;BMP_temperature;BMP_pressure;BME280_temperature;BME280_humidity;BME280_pressure;Samples;Min_cycle;Max_cycle;Signal;HPM_P1;HPM_P2
2024/01/18 00:00:23;;;;;;;0.70;0.70;;;;;;;;;;6216751;23;20768;-68
2024/01/18 00:02:49;;;;;;;1.60;0.67;;;;;;;;;;6216750;23;20715;-68
2024/01/18 00:05:15;;;;;;;1.23;0.60;;;;;;;;;;6217495;23;20701;-70
2024/01/18 00:07:41;;;;;;;2.90;0.50;;;;;;;;;;6216726;23;20916;-68
2024/01/18 00:10:07;;;;;;;0.57;0.50;;;;;;;;;;6216939;23;20391;-68
2024/01/18 00:12:35;;;;;;;0.43;0.43;;;;;;;;;;6217044;23;20422;-69
2024/01/18 00:15:01;;;;;;;1.43;0.40;;;;;;;;;;6216715;23;20383;-69
2024/01/18 00:17:27;;;;;;;1.80;0.50;;;;;;;;;;6217003;23;20371;-68
2024/01/18 00:19:54;;;;;;;0.40;0.40;;;;;;;;;;6217263;23;20375;-68
2024/01/18 00:22:20;;;;;;;0.40;0.40;;;;;;;;;;6216970;23;20375;-68
2024/01/18 00:24:46;;;;;;;2.00;0.47;;;;;;;;;;6217112;23;20380;-68
2024/01/18 00:27:12;;;;;;;0.50;0.50;;;;;;;;;;6217376;23;20368;-68
2024/01/18 00:29:38;;;;;;;0.47;0.47;;;;;;;;;;6216667;23;20383;-69
2024/01/18 00:32:04;;;;;;;0.50;0.50;;;;;;;;;;6190163;23;20419;-68
2024/01/18 00:34:30;;;;;;;1.57;0.83;;;;;;;;;;6216815;23;20847;-68
2024/01/18 00:36:56;;;;;;;0.50;0.50;;;;;;;;;;6217349;23;20868;-67
2024/01/18 00:39:24;;;;;;;0.73;0.50;;;;;;;;;;6216608;23;20415;-68
2024/01/18 00:41:50;;;;;;;0.50;0.50;;;;;;;;;;6216924;23;20363;-68
2024/01/18 00:44:16;;;;;;;0.53;0.53;;;;;;;;;;6217595;23;20458;-67
2024/01/18 00:46:41;;;;;;;0.40;0.40;;;;;;;;;;6217223;23;20477;-68
2024/01/18 00:49:07;;;;;;;0.50;0.50;;;;;;;;;;6216844;23;20378;-68
2024/01/18 00:51:33;;;;;;;1.00;0.70;;;;;;;;;;6189540;23;20849;-67
2024/01/18 00:54:02;;;;;;;0.47;0.47;;;;;;;;;;6216768;23;20434;-68
2024/01/18 00:56:28;;;;;;;1.40;0.50;;;;;;;;;;6216383;23;20375;-68
2024/01/18 00:58:54;;;;;;;0.60;0.60;;;;;;;;;;6216384;23;20460;-68
2024/01/18 01:01:20;;;;;;;0.50;0.50;;;;;;;;;;6216437;23;20402;-68
2024/01/18 01:03:46;;;;;;;2.30;0.70;;;;;;;;;;6216749;23;20380;-67
2024/01/18 01:06:12;;;;;;;1.13;0.60;;;;;;;;;;6216290;23;20470;-67
2024/01/18 01:08:39;;;;;;;0.50;0.50;;;;;;;;;;6216657;23;20408;-68
2024/01/18 01:11:06;;;;;;;0.37;0.37;;;;;;;;;;6216364;23;20398;-68
2024/01/18 01:13:32;;;;;;;1.37;0.50;;;;;;;;;;6216545;23;20807;-68
2024/01/18 01:15:58;;;;;;;3.27;0.50;;;;;;;;;;6216554;23;20375;-68
2024/01/18 01:18:24;;;;;;;1.13;0.43;;;;;;;;;;6216917;23;20833;-68
2024/01/18 01:20:50;;;;;;;3.53;0.70;;;;;;;;;;6216558;23;20919;-68
2024/01/18 01:23:16;;;;;;;1.77;0.50;;;;;;;;;;6216575;23;20418;-68
2024/01/18 01:25:42;;;;;;;0.50;0.50;;;;;;;;;;6215966;23;20379;-68
2024/01/18 01:28:08;;;;;;;1.07;0.60;;;;;;;;;;6216511;23;20383;-68
2024/01/18 01:30:34;;;;;;;0.40;0.40;;;;;;;;;;6216169;23;20378;-68
2024/01/18 01:33:00;;;;;;;6.47;0.73;;;;;;;;;;6216718;23;20438;-67
2024/01/18 01:35:26;;;;;;;3.20;0.50;;;;;;;;;;6216512;23;20444;-68
2024/01/18 01:37:52;;;;;;;0.40;0.40;;;;;;;;;;6216030;23;20384;-68
2024/01/18 01:40:18;;;;;;;0.43;0.43;;;;;;;;;;6216412;23;20772;-68
2024/01/18 01:42:44;;;;;;;1.90;0.50;;;;;;;;;;6216635;23;20387;-68
2024/01/18 01:45:10;;;;;;;1.90;0.40;;;;;;;;;;6215995;23;20383;-69
2024/01/18 01:47:36;;;;;;;5.43;0.70;;;;;;;;;;6216058;23;20407;-68
2024/01/18 01:50:03;;;;;;;0.40;0.40;;;;;;;;;;6216762;23;20386;-68
2024/01/18 01:52:30;;;;;;;1.53;0.50;;;;;;;;;;6215785;23;20376;-68
2024/01/18 01:54:56;;;;;;;1.13;0.50;;;;;;;;;;6216245;23;20391;-68
2024/01/18 01:57:23;;;;;;;2.00;0.50;;;;;;;;;;6215869;23;20371;-68
2024/01/18 01:59:49;;;;;;;1.17;0.73;;;;;;;;;;6215574;23;20449;-68
2024/01/18 02:02:16;;;;;;;1.33;0.70;;;;;;;;;;6215666;23;20402;-68
2024/01/18 02:04:42;;;;;;;0.60;0.60;;;;;;;;;;6215734;23;20386;-68
2024/01/18 02:07:09;;;;;;;2.53;0.70;;;;;;;;;;6216146;23;20371;-68
2024/01/18 02:09:35;;;;;;;0.50;0.50;;;;;;;;;;6189624;23;20732;-68
2024/01/18 02:12:01;;;;;;;0.50;0.50;;;;;;;;;;6216627;23;20461;-69
2024/01/18 02:14:28;;;;;;;3.53;0.60;;;;;;;;;;6215495;23;20920;-68
2024/01/18 02:16:54;;;;;;;1.17;0.60;;;;;;;;;;6216705;23;20398;-67
2024/01/18 02:19:20;;;;;;;0.73;0.73;;;;;;;;;;6215639;23;20861;-67
2024/01/18 02:21:46;;;;;;;2.00;0.43;;;;;;;;;;6215709;23;20380;-68
2024/01/18 02:24:19;;;;;;;2.50;0.50;;;;;;;;;;6215613;23;20371;-68
2024/01/18 02:26:45;;;;;;;0.40;0.40;;;;;;;;;;6216044;23;20395;-68
2024/01/18 02:29:11;;;;;;;1.70;0.50;;;;;;;;;;6216216;23;20374;-69
2024/01/18 02:31:37;;;;;;;4.60;0.60;;;;;;;;;;6215932;23;20433;-68
2024/01/18 02:34:10;;;;;;;0.50;0.40;;;;;;;;;;6216198;23;20502;-69
2024/01/18 02:36:36;;;;;;;0.63;0.60;;;;;;;;;;6188977;23;20441;-68
2024/01/18 02:39:03;;;;;;;2.60;0.70;;;;;;;;;;6215904;23;20390;-68
2024/01/18 02:41:29;;;;;;;0.40;0.40;;;;;;;;;;6215558;23;20375;-68
2024/01/18 02:43:55;;;;;;;2.20;0.30;;;;;;;;;;6215464;23;20375;-68
2024/01/18 02:46:21;;;;;;;0.83;0.40;;;;;;;;;;6215662;23;20383;-68
2024/01/18 02:48:47;;;;;;;0.40;0.40;;;;;;;;;;6215493;23;20383;-68
2024/01/18 02:51:13;;;;;;;0.30;0.30;;;;;;;;;;6215621;23;20374;-69
2024/01/18 02:53:39;;;;;;;1.63;0.50;;;;;;;;;;6215621;23;20435;-68
2024/01/18 02:56:05;;;;;;;5.90;0.50;;;;;;;;;;6215518;23;20458;-68
2024/01/18 02:58:31;;;;;;;1.10;0.70;;;;;;;;;;6215720;23;20379;-68
2024/01/18 03:00:57;;;;;;;0.40;0.40;;;;;;;;;;6215483;23;20382;-68
2024/01/18 03:03:23;;;;;;;0.40;0.40;;;;;;;;;;6215727;23;20386;-68
2024/01/18 03:05:49;;;;;;;0.67;0.60;;;;;;;;;;6215324;23;20413;-69
2024/01/18 03:08:15;;;;;;;0.30;0.30;;;;;;;;;;6215820;23;20865;-68
2024/01/18 03:10:41;;;;;;;0.40;0.40;;;;;;;;;;6215333;23;20368;-68
2024/01/18 03:13:07;;;;;;;1.30;0.40;;;;;;;;;;6215412;23;20433;-68
2024/01/18 03:15:33;;;;;;;1.57;0.50;;;;;;;;;;6217012;23;20695;-68
2024/01/18 03:17:59;;;;;;;0.67;0.50;;;;;;;;;;6217672;23;20462;-68
2024/01/18 03:20:25;;;;;;;1.07;0.80;;;;;;;;;;6217292;23;20367;-68
2024/01/18 03:22:51;;;;;;;0.40;0.40;;;;;;;;;;6217488;23;20375;-69
2024/01/18 03:25:17;;;;;;;0.37;0.37;;;;;;;;;;6190728;23;20470;-68
2024/01/18 03:27:43;;;;;;;1.17;0.50;;;;;;;;;;6217296;23;20899;-68
2024/01/18 03:30:10;;;;;;;0.73;0.30;;;;;;;;;;6217607;23;20390;-67
2024/01/18 03:32:36;;;;;;;0.30;0.30;;;;;;;;;;6217583;23;20772;-68
2024/01/18 03:35:02;;;;;;;0.30;0.30;;;;;;;;;;6217518;23;20877;-68
2024/01/18 03:37:27;;;;;;;0.40;0.40;;;;;;;;;;6217343;23;20379;-68
2024/01/18 03:39:53;;;;;;;0.93;0.40;;;;;;;;;;6217078;23;20492;-68
2024/01/18 03:42:19;;;;;;;3.33;0.30;;;;;;;;;;6217158;23;20376;-68
2024/01/18 03:44:45;;;;;;;3.80;0.60;;;;;;;;;;6217114;23;20383;-67
2024/01/18 03:47:11;;;;;;;0.30;0.30;;;;;;;;;;6217187;23;20692;-68
2024/01/18 03:49:37;;;;;;;1.03;0.70;;;;;;;;;;6217483;23;20410;-68
2024/01/18 03:52:03;;;;;;;2.10;0.40;;;;;;;;;;6217022;23;20424;-69
2024/01/18 03:54:30;;;;;;;0.43;0.40;;;;;;;;;;6217253;23;20458;-67
2024/01/18 03:56:56;;;;;;;1.30;0.40;;;;;;;;;;6217004;23;20403;-68
2024/01/18 03:59:23;;;;;;;0.40;0.40;;;;;;;;;;6216998;23;20431;-68
2024/01/18 04:01:49;;;;;;;1.53;0.47;;;;;;;;;;6216967;23;20896;-68
2024/01/18 04:04:15;;;;;;;2.23;0.40;;;;;;;;;;6216921;23;20689;-68
2024/01/18 04:06:41;;;;;;;0.40;0.40;;;;;;;;;;6216954;23;20453;-68
2024/01/18 04:09:08;;;;;;;0.60;0.60;;;;;;;;;;6217174;23;20688;-68
2024/01/18 04:11:34;;;;;;;0.40;0.40;;;;;;;;;;6217258;23;20379;-68
2024/01/18 04:14:00;;;;;;;0.53;0.40;;;;;;;;;;6216838;23;20426;-68
2024/01/18 04:16:26;;;;;;;0.67;0.50;;;;;;;;;;6190775;23;20421;-68
2024/01/18 04:18:52;;;;;;;0.37;0.37;;;;;;;;;;6217130;23;20410;-69
2024/01/18 04:21:18;;;;;;;0.40;0.40;;;;;;;;;;6216669;23;20841;-68
2024/01/18 04:23:44;;;;;;;0.53;0.47;;;;;;;;;;6216733;23;20471;-68
2024/01/18 04:26:10;;;;;;;3.00;0.40;;;;;;;;;;6216113;23;20378;-68
2024/01/18 04:28:36;;;;;;;0.90;0.40;;;;;;;;;;6217564;23;20379;-67
2024/01/18 04:31:03;;;;;;;0.47;0.40;;;;;;;;;;6217454;23;20375;-68
2024/01/18 04:33:29;;;;;;;0.30;0.30;;;;;;;;;;6216965;23;20438;-69
2024/01/18 04:35:55;;;;;;;0.40;0.40;;;;;;;;;;6216984;23;20679;-68
2024/01/18 04:38:21;;;;;;;4.07;0.47;;;;;;;;;;6216579;23;20780;-68
2024/01/18 04:40:47;;;;;;;0.40;0.40;;;;;;;;;;6216774;23;20374;-68
2024/01/18 04:43:13;;;;;;;0.30;0.30;;;;;;;;;;6217392;23;20459;-69
2024/01/18 04:45:39;;;;;;;2.80;0.30;;;;;;;;;;6216986;23;20371;-68
2024/01/18 04:48:05;;;;;;;1.90;0.30;;;;;;;;;;6216968;23;20446;-67
2024/01/18 04:50:31;;;;;;;0.83;0.30;;;;;;;;;;6217595;23;20367;-68
2024/01/18 04:52:57;;;;;;;0.30;0.30;;;;;;;;;;6216370;23;20472;-69
2024/01/18 04:55:23;;;;;;;0.20;0.20;;;;;;;;;;6216969;23;20382;-68
2024/01/18 04:57:50;;;;;;;0.30;0.30;;;;;;;;;;6216406;23;20379;-68
2024/01/18 05:00:16;;;;;;;0.30;0.30;;;;;;;;;;6189585;23;20470;-68
2024/01/18 05:02:42;;;;;;;0.53;0.40;;;;;;;;;;6216636;23;20410;-69
2024/01/18 05:05:09;;;;;;;0.30;0.30;;;;;;;;;;6216660;23;20429;-69
2024/01/18 05:07:44;;;;;;;0.40;0.40;;;;;;;;;;6217015;23;20375;-69
2024/01/18 05:10:10;;;;;;;0.93;0.30;;;;;;;;;;6216492;23;20417;-68
2024/01/18 05:12:37;;;;;;;1.93;0.30;;;;;;;;;;6216249;23;20471;-68
2024/01/18 05:15:03;;;;;;;0.27;0.27;;;;;;;;;;6216677;23;20398;-69
2024/01/18 05:17:35;;;;;;;0.30;0.30;;;;;;;;;;6217150;23;20458;-69
2024/01/18 05:20:05;;;;;;;0.40;0.40;;;;;;;;;;6216615;23;20381;-69
2024/01/18 05:22:31;;;;;;;0.30;0.30;;;;;;;;;;6216525;23;20386;-68
2024/01/18 05:24:59;;;;;;;0.33;0.33;;;;;;;;;;6216147;23;20387;-68
2024/01/18 05:27:25;;;;;;;0.30;0.30;;;;;;;;;;6216255;23;20371;-67
2024/01/18 05:29:51;;;;;;;2.10;0.40;;;;;;;;;;6216425;23;20380;-67
2024/01/18 05:32:20;;;;;;;0.30;0.30;;;;;;;;;;6216004;23;20383;-67
2024/01/18 05:34:46;;;;;;;0.43;0.40;;;;;;;;;;6216324;23;20391;-68
2024/01/18 05:37:12;;;;;;;0.60;0.60;;;;;;;;;;6215989;23;20383;-67
2024/01/18 05:39:38;;;;;;;0.40;0.40;;;;;;;;;;6216058;23;20928;-68
2024/01/18 05:42:04;;;;;;;1.57;0.70;;;;;;;;;;6216108;23;20409;-68
2024/01/18 05:44:30;;;;;;;1.50;0.30;;;;;;;;;;6215959;23;20415;-68
2024/01/18 05:46:56;;;;;;;0.43;0.43;;;;;;;;;;6215908;23;20482;-68
2024/01/18 05:49:22;;;;;;;0.30;0.30;;;;;;;;;;6216274;23;20425;-67
2024/01/18 05:51:48;;;;;;;0.30;0.30;;;;;;;;;;6215875;23;20382;-68
2024/01/18 05:54:14;;;;;;;0.30;0.30;;;;;;;;;;6189155;23;20449;-69
2024/01/18 05:56:41;;;;;;;1.23;0.50;;;;;;;;;;6189308;23;20415;-71
2024/01/18 05:59:07;;;;;;;1.60;1.60;;;;;;;;;;6215662;23;20454;-69
2024/01/18 06:01:33;;;;;;;4.50;4.20;;;;;;;;;;6189013;23;20857;-70
2024/01/18 06:03:59;;;;;;;3.20;2.90;;;;;;;;;;6216219;23;20713;-70
2024/01/18 06:06:25;;;;;;;6.90;6.20;;;;;;;;;;6215818;23;20378;-69
2024/01/18 06:08:51;;;;;;;2.33;1.93;;;;;;;;;;6215851;23;20375;-70
2024/01/18 06:11:19;;;;;;;3.83;3.53;;;;;;;;;;6216435;23;20429;-70
2024/01/18 06:13:45;;;;;;;2.70;2.60;;;;;;;;;;6215586;23;20967;-70
2024/01/18 06:16:12;;;;;;;5.83;5.37;;;;;;;;;;6215689;23;20371;-70
2024/01/18 06:18:42;;;;;;;1.53;1.53;;;;;;;;;;6216964;23;20387;-70
2024/01/18 06:21:08;;;;;;;1.60;1.60;;;;;;;;;;6191386;23;20750;-70
2024/01/18 06:23:34;;;;;;;0.30;0.30;;;;;;;;;;6215912;23;20407;-70
2024/01/18 06:26:00;;;;;;;0.40;0.40;;;;;;;;;;6215587;23;20705;-70
2024/01/18 06:28:26;;;;;;;0.30;0.30;;;;;;;;;;6215712;23;20466;-70
2024/01/18 06:30:52;;;;;;;0.30;0.30;;;;;;;;;;6215511;23;20375;-70
2024/01/18 06:33:19;;;;;;;0.53;0.40;;;;;;;;;;6215734;23;20470;-70
2024/01/18 06:35:44;;;;;;;0.30;0.30;;;;;;;;;;6216263;23;20874;-70
2024/01/18 06:38:11;;;;;;;0.30;0.30;;;;;;;;;;6215824;23;20418;-71
2024/01/18 06:40:38;;;;;;;0.50;0.30;;;;;;;;;;6215024;23;20387;-71
2024/01/18 06:43:04;;;;;;;0.30;0.30;;;;;;;;;;6215529;23;20841;-71
2024/01/18 06:45:30;;;;;;;0.30;0.30;;;;;;;;;;6215580;23;20379;-70
2024/01/18 06:47:56;;;;;;;0.30;0.30;;;;;;;;;;6215266;23;20936;-71
2024/01/18 06:50:22;;;;;;;0.53;0.33;;;;;;;;;;6215252;23;20394;-70
2024/01/18 06:52:48;;;;;;;0.30;0.30;;;;;;;;;;6215653;23;20434;-70
2024/01/18 06:55:14;;;;;;;0.87;0.30;;;;;;;;;;6188635;23;20418;-71
2024/01/18 06:57:41;;;;;;;0.30;0.30;;;;;;;;;;6215656;23;20471;-71
2024/01/18 07:00:08;;;;;;;0.50;0.50;;;;;;;;;;6215244;23;20431;-70
2024/01/18 07:02:34;;;;;;;0.30;0.30;;;;;;;;;;6215349;23;20378;-70
2024/01/18 07:05:00;;;;;;;0.30;0.30;;;;;;;;;;6215285;23;20383;-70
2024/01/18 07:07:27;;;;;;;0.20;0.20;;;;;;;;;;6188650;23;20390;-71
2024/01/18 07:09:53;;;;;;;0.40;0.40;;;;;;;;;;6215296;23;20395;-70
2024/01/18 07:12:19;;;;;;;0.30;0.30;;;;;;;;;;6216013;23;20458;-70
2024/01/18 07:14:45;;;;;;;0.47;0.30;;;;;;;;;;6215256;23;20900;-68
2024/01/18 07:17:11;;;;;;;0.40;0.40;;;;;;;;;;6215457;23;20379;-68
2024/01/18 07:19:37;;;;;;;6.13;0.60;;;;;;;;;;6215690;23;20884;-68
2024/01/18 07:22:06;;;;;;;0.30;0.30;;;;;;;;;;6216587;23;20405;-68
2024/01/18 07:24:32;;;;;;;4.10;0.40;;;;;;;;;;6188418;23;20398;-68
2024/01/18 07:26:58;;;;;;;0.40;0.40;;;;;;;;;;6215497;23;20371;-69
2024/01/18 07:29:24;;;;;;;1.47;0.40;;;;;;;;;;6215111;23;20825;-69
2024/01/18 07:31:50;;;;;;;0.30;0.30;;;;;;;;;;6215918;23;20379;-69
2024/01/18 07:34:16;;;;;;;0.30;0.30;;;;;;;;;;6215025;23;20496;-69
2024/01/18 07:36:45;;;;;;;0.40;0.40;;;;;;;;;;6215425;23;20376;-68
2024/01/18 07:39:11;;;;;;;0.40;0.40;;;;;;;;;;6215490;23;20383;-68
2024/01/18 07:41:37;;;;;;;0.50;0.50;;;;;;;;;;6214840;23;20371;-68
2024/01/18 07:44:03;;;;;;;1.23;0.40;;;;;;;;;;6215777;23;20449;-69
2024/01/18 07:46:29;;;;;;;1.17;0.60;;;;;;;;;;6214997;23;20372;-69
2024/01/18 07:48:55;;;;;;;0.30;0.30;;;;;;;;;;6214907;23;20375;-68
2024/01/18 07:54:25;;;;;;;2.20;0.47;;;;;;;;;;6214996;23;20761;-69
2024/01/18 07:56:51;;;;;;;0.30;0.30;;;;;;;;;;6215501;23;20376;-69
2024/01/18 07:59:17;;;;;;;0.50;0.50;;;;;;;;;;6215806;23;20437;-62
2024/01/18 08:01:45;;;;;;;0.30;0.30;;;;;;;;;;6216164;23;20700;-68
2024/01/18 08:04:11;;;;;;;0.43;0.43;;;;;;;;;;6217553;23;20474;-69
2024/01/18 08:06:37;;;;;;;0.60;0.60;;;;;;;;;;6217703;23;20394;-68
2024/01/18 08:09:03;;;;;;;0.80;0.80;;;;;;;;;;6217017;23;20410;-69
2024/01/18 08:11:28;;;;;;;0.57;0.40;;;;;;;;;;6217145;23;20670;-68
2024/01/18 08:13:54;;;;;;;0.30;0.30;;;;;;;;;;6189986;23;20466;-69
2024/01/18 08:16:20;;;;;;;1.53;0.40;;;;;;;;;;6217004;23;20443;-68
2024/01/18 08:18:46;;;;;;;0.33;0.33;;;;;;;;;;6216869;23;20406;-69
2024/01/18 08:21:12;;;;;;;0.50;0.37;;;;;;;;;;6216928;23;20859;-69
2024/01/18 08:23:40;;;;;;;0.83;0.40;;;;;;;;;;6189925;23;20403;-69
2024/01/18 08:26:07;;;;;;;0.40;0.40;;;;;;;;;;6217531;23;20383;-68
2024/01/18 08:28:33;;;;;;;0.30;0.30;;;;;;;;;;6217386;23;20458;-68
2024/01/18 08:30:59;;;;;;;0.30;0.30;;;;;;;;;;6216618;23;20492;-69
2024/01/18 08:33:25;;;;;;;1.60;1.33;;;;;;;;;;6216715;23;20430;-69
2024/01/18 08:35:51;;;;;;;0.30;0.30;;;;;;;;;;6216570;23;20718;-69
2024/01/18 08:38:17;;;;;;;0.40;0.40;;;;;;;;;;6216540;23;20379;-68
2024/01/18 08:40:43;;;;;;;0.30;0.30;;;;;;;;;;6217135;23;20378;-69
2024/01/18 08:43:09;;;;;;;0.40;0.40;;;;;;;;;;6216786;23;20383;-68
2024/01/18 08:45:36;;;;;;;0.57;0.50;;;;;;;;;;6216765;23;20410;-69
2024/01/18 08:48:02;;;;;;;0.40;0.40;;;;;;;;;;6216680;23;20403;-68
2024/01/18 08:50:28;;;;;;;0.43;0.43;;;;;;;;;;6216412;23;20417;-68
2024/01/18 08:52:54;;;;;;;0.40;0.40;;;;;;;;;;6216579;23;20814;-68
2024/01/18 08:55:20;;;;;;;0.80;0.40;;;;;;;;;;6216649;23;20414;-68
2024/01/18 08:57:46;;;;;;;0.40;0.40;;;;;;;;;;6216667;23;20368;-68
2024/01/18 09:00:13;;;;;;;0.57;0.57;;;;;;;;;;6216003;23;20445;-68
2024/01/18 09:02:40;;;;;;;0.30;0.30;;;;;;;;;;6190140;23;20394;-68
2024/01/18 09:05:06;;;;;;;0.77;0.50;;;;;;;;;;6215773;23;20471;-69
2024/01/18 09:07:32;;;;;;;0.87;0.40;;;;;;;;;;6216200;23;20371;-69
2024/01/18 09:09:58;;;;;;;0.67;0.67;;;;;;;;;;6216335;23;20399;-68
2024/01/18 09:12:25;;;;;;;0.50;0.50;;;;;;;;;;6216037;23;20386;-69
2024/01/18 09:14:51;;;;;;;0.47;0.47;;;;;;;;;;6216314;23;20449;-69
2024/01/18 09:17:17;;;;;;;0.60;0.60;;;;;;;;;;6216664;23;20442;-68
2024/01/18 09:19:44;;;;;;;0.80;0.80;;;;;;;;;;6216263;23;20379;-69
2024/01/18 09:22:10;;;;;;;0.90;0.90;;;;;;;;;;6216351;23;20504;-64
2024/01/18 09:24:36;;;;;;;0.80;0.80;;;;;;;;;;6189335;23;20402;-64
2024/01/18 09:27:02;;;;;;;1.10;1.00;;;;;;;;;;6216303;23;20470;-66
2024/01/18 09:29:28;;;;;;;1.70;0.80;;;;;;;;;;6215767;23;20375;-66
2024/01/18 09:31:56;;;;;;;0.63;0.63;;;;;;;;;;6216937;23;20374;-70
2024/01/18 09:34:22;;;;;;;1.63;0.70;;;;;;;;;;6216303;23;20465;-65
2024/01/18 09:36:48;;;;;;;0.43;0.43;;;;;;;;;;6215995;23;20379;-68
2024/01/18 09:39:17;;;;;;;0.50;0.40;;;;;;;;;;6215848;23;20379;-68
2024/01/18 09:41:43;;;;;;;0.43;0.43;;;;;;;;;;6215963;23;20451;-67
2024/01/18 09:44:12;;;;;;;1.90;0.50;;;;;;;;;;6215992;23;20378;-67
2024/01/18 09:46:38;;;;;;;0.97;0.57;;;;;;;;;;6216420;23;20476;-67
2024/01/18 09:49:07;;;;;;;0.90;0.90;;;;;;;;;;6215682;23;20383;-67
2024/01/18 09:51:33;;;;;;;0.50;0.50;;;;;;;;;;6188955;23;20391;-66
2024/01/18 09:54:00;;;;;;;0.73;0.70;;;;;;;;;;6215471;23;20430;-69
2024/01/18 09:56:31;;;;;;;0.60;0.60;;;;;;;;;;6215482;23;20829;-68
2024/01/18 09:58:58;;;;;;;0.50;0.50;;;;;;;;;;6215706;23;20426;-69
2024/01/18 10:01:24;;;;;;;1.10;1.10;;;;;;;;;;6216033;23;20395;-68
2024/01/18 10:03:50;;;;;;;0.80;0.80;;;;;;;;;;6215795;23;20427;-66
2024/01/18 10:06:17;;;;;;;0.67;0.67;;;;;;;;;;6215455;23;20448;-69
2024/01/18 10:08:44;;;;;;;0.60;0.60;;;;;;;;;;6215982;23;20379;-69
2024/01/18 10:11:10;;;;;;;7.23;1.13;;;;;;;;;;6216026;23;20402;-68
2024/01/18 10:13:51;;;;;;;0.50;0.50;;;;;;;;;;6215852;23;20447;-67
2024/01/18 10:16:27;;;;;;;0.80;0.80;;;;;;;;;;6215786;23;20371;-68
2024/01/18 10:18:53;;;;;;;0.40;0.40;;;;;;;;;;6216155;23;20440;-70
2024/01/18 10:21:20;;;;;;;0.60;0.60;;;;;;;;;;6215835;23;20372;-68
2024/01/18 10:23:46;;;;;;;0.40;0.40;;;;;;;;;;6215330;23;20384;-68
2024/01/18 10:26:12;;;;;;;0.70;0.70;;;;;;;;;;6215866;23;20413;-67
2024/01/18 10:28:38;;;;;;;0.47;0.47;;;;;;;;;;6215902;23;20845;-68
2024/01/18 10:31:04;;;;;;;0.67;0.50;;;;;;;;;;6215944;23;20370;-69
2024/01/18 10:33:30;;;;;;;0.60;0.60;;;;;;;;;;6215578;23;20469;-68
2024/01/18 10:35:56;;;;;;;3.43;0.50;;;;;;;;;;6215713;23;20470;-70
2024/01/18 10:38:32;;;;;;;0.43;0.43;;;;;;;;;;6215678;23;20373;-69
2024/01/18 10:41:00;;;;;;;0.60;0.60;;;;;;;;;;6188974;23;20410;-69
2024/01/18 10:43:30;;;;;;;0.73;0.73;;;;;;;;;;6216297;23;20395;-68
2024/01/18 10:45:56;;;;;;;0.70;0.70;;;;;;;;;;6190370;23;20860;-71
2024/01/18 10:48:22;;;;;;;1.27;0.60;;;;;;;;;;6215878;23;20429;-69
2024/01/18 10:50:51;;;;;;;0.40;0.40;;;;;;;;;;6215464;23;20403;-68
2024/01/18 10:53:17;;;;;;;1.73;0.60;;;;;;;;;;6215634;23;20737;-70
2024/01/18 10:55:43;;;;;;;0.60;0.60;;;;;;;;;;6215358;23;20383;-68
2024/01/18 10:58:09;;;;;;;3.23;0.97;;;;;;;;;;6215703;23;20380;-69
2024/01/18 11:00:35;;;;;;;0.40;0.40;;;;;;;;;;6214983;23;20757;-69
2024/01/18 11:03:01;;;;;;;0.60;0.60;;;;;;;;;;6215361;23;20391;-69
2024/01/18 11:05:27;;;;;;;0.50;0.50;;;;;;;;;;6215094;23;20460;-68
2024/01/18 11:07:53;;;;;;;1.37;0.60;;;;;;;;;;6216096;23;20756;-71
2024/01/18 11:10:20;;;;;;;0.50;0.50;;;;;;;;;;6214909;23;20744;-69
2024/01/18 11:12:49;;;;;;;0.63;0.60;;;;;;;;;;6214872;23;20865;-71
2024/01/18 11:15:15;;;;;;;0.53;0.53;;;;;;;;;;6215278;23;20410;-68
2024/01/18 11:17:48;;;;;;;0.53;0.53;;;;;;;;;;6215050;23;20465;-69
2024/01/18 11:23:17;;;;;;;1.10;1.10;;;;;;;;;;6215387;23;20435;-69
2024/01/18 11:25:45;;;;;;;0.60;0.60;;;;;;;;;;6215036;23;20748;-67
2024/01/18 11:28:21;;;;;;;0.67;0.67;;;;;;;;;;6215432;23;20471;-68
2024/01/18 11:30:48;;;;;;;0.40;0.40;;;;;;;;;;6215418;23;20382;-68
2024/01/18 11:33:14;;;;;;;0.80;0.80;;;;;;;;;;6215171;23;20426;-69
2024/01/18 11:35:41;;;;;;;0.50;0.50;;;;;;;;;;6215509;23;20391;-68
2024/01/18 11:38:28;;;;;;;0.77;0.77;;;;;;;;;;6217421;23;20378;-67
2024/01/18 11:40:57;;;;;;;1.50;0.40;;;;;;;;;;6217235;23;20363;-68
2024/01/18 11:43:46;;;;;;;0.30;0.30;;;;;;;;;;6217044;23;20900;-67
2024/01/18 11:46:13;;;;;;;0.40;0.40;;;;;;;;;;6217785;23;20825;-68
2024/01/18 11:48:39;;;;;;;0.40;0.40;;;;;;;;;;6217305;23;20383;-69
2024/01/18 11:51:05;;;;;;;0.60;0.60;;;;;;;;;;6217311;23;20759;-69
2024/01/18 11:53:31;;;;;;;0.67;0.67;;;;;;;;;;6217066;23;20435;-69
2024/01/18 11:55:59;;;;;;;1.53;1.53;;;;;;;;;;6217045;23;20683;-68
2024/01/18 11:58:25;;;;;;;1.00;1.00;;;;;;;;;;6216789;23;20474;-68
2024/01/18 12:00:51;;;;;;;0.90;0.90;;;;;;;;;;6216578;23;20500;-68
2024/01/18 12:03:17;;;;;;;2.50;0.67;;;;;;;;;;6217063;23;20433;-68
2024/01/18 12:05:45;;;;;;;0.40;0.40;;;;;;;;;;6217156;23;20375;-68
2024/01/18 12:08:11;;;;;;;1.40;1.40;;;;;;;;;;6216937;23;20429;-68
2024/01/18 12:10:37;;;;;;;1.77;1.77;;;;;;;;;;6217157;23;20370;-68
2024/01/18 12:13:04;;;;;;;1.00;1.00;;;;;;;;;;6217174;23;20423;-67
2024/01/18 12:15:31;;;;;;;1.53;1.53;;;;;;;;;;6190057;23;20405;-67
2024/01/18 12:17:58;;;;;;;0.50;0.50;;;;;;;;;;6190088;23;20391;-68
2024/01/18 12:20:24;;;;;;;0.60;0.60;;;;;;;;;;6216952;23;20466;-68
2024/01/18 12:22:50;;;;;;;0.77;0.77;;;;;;;;;;6217320;23;20367;-67
2024/01/18 12:25:16;;;;;;;0.70;0.70;;;;;;;;;;6216405;23;20375;-68
2024/01/18 12:27:42;;;;;;;0.70;0.63;;;;;;;;;;6217048;23;20374;-68
2024/01/18 12:30:08;;;;;;;0.80;0.80;;;;;;;;;;6216568;23;20747;-68
2024/01/18 12:32:36;;;;;;;2.07;1.97;;;;;;;;;;6216529;23;20398;-67
2024/01/18 12:35:02;;;;;;;4.67;4.50;;;;;;;;;;6216807;23;20395;-67
2024/01/18 12:37:29;;;;;;;1.60;1.60;;;;;;;;;;6216782;23;20383;-68
2024/01/18 12:39:55;;;;;;;0.83;0.83;;;;;;;;;;6216563;23;20493;-68
2024/01/18 12:42:21;;;;;;;1.00;1.00;;;;;;;;;;6216370;23;20427;-68
2024/01/18 12:44:53;;;;;;;0.80;0.80;;;;;;;;;;6216603;23;20375;-67
2024/01/18 12:47:20;;;;;;;1.57;1.57;;;;;;;;;;6215575;23;20713;-69
2024/01/18 12:49:46;;;;;;;1.03;1.03;;;;;;;;;;6216099;23;20701;-68
2024/01/18 12:52:17;;;;;;;0.80;0.80;;;;;;;;;;6215971;23;20420;-69
2024/01/18 12:54:44;;;;;;;0.87;0.87;;;;;;;;;;6216298;23;20426;-69
2024/01/18 12:57:12;;;;;;;0.77;0.77;;;;;;;;;;6216373;23;20382;-69
2024/01/18 12:59:38;;;;;;;0.53;0.53;;;;;;;;;;6215677;23;20519;-69
2024/01/18 13:02:04;;;;;;;0.90;0.90;;;;;;;;;;6215971;23;20421;-68
2024/01/18 13:04:34;;;;;;;0.80;0.80;;;;;;;;;;6216540;23;20380;-69
2024/01/18 13:07:01;;;;;;;0.67;0.67;;;;;;;;;;6216369;23;20437;-69
2024/01/18 13:09:28;;;;;;;1.00;1.00;;;;;;;;;;6216320;23;20378;-70
2024/01/18 13:11:54;;;;;;;1.00;1.00;;;;;;;;;;6216046;23;20710;-70
2024/01/18 13:14:21;;;;;;;0.60;0.60;;;;;;;;;;6215855;23;20426;-70
2024/01/18 13:16:47;;;;;;;0.93;0.93;;;;;;;;;;6216423;23;20375;-69
2024/01/18 13:19:16;;;;;;;2.20;2.10;;;;;;;;;;6216026;23;20671;-69
2024/01/18 13:21:42;;;;;;;1.17;1.17;;;;;;;;;;6216728;23;20421;-69
2024/01/18 13:24:08;;;;;;;2.23;1.23;;;;;;;;;;6216025;23;20375;-69
2024/01/18 13:26:35;;;;;;;1.83;1.83;;;;;;;;;;6216327;23;20705;-69
2024/01/18 13:29:01;;;;;;;2.17;2.17;;;;;;;;;;6216305;23;20391;-69
2024/01/18 13:31:27;;;;;;;1.57;1.57;;;;;;;;;;6216375;23;20445;-68
2024/01/18 13:33:53;;;;;;;1.37;1.37;;;;;;;;;;6216713;23;20426;-69
2024/01/18 13:36:19;;;;;;;0.80;0.80;;;;;;;;;;6216293;23;20367;-69
2024/01/18 13:38:46;;;;;;;1.80;1.80;;;;;;;;;;6215829;23;20379;-70
2024/01/18 13:41:12;;;;;;;1.10;1.10;;;;;;;;;;6216062;23;20383;-68
2024/01/18 13:43:38;;;;;;;3.40;1.27;;;;;;;;;;6216206;23;20873;-69
2024/01/18 13:46:05;;;;;;;2.20;2.20;;;;;;;;;;6215748;23;20477;-69
2024/01/18 13:48:32;;;;;;;1.70;1.70;;;;;;;;;;6216221;23;20374;-69
2024/01/18 13:50:58;;;;;;;0.87;0.87;;;;;;;;;;6215934;23;20379;-69
2024/01/18 13:53:27;;;;;;;0.60;0.60;;;;;;;;;;6215568;23;20455;-69
2024/01/18 13:55:56;;;;;;;1.20;1.20;;;;;;;;;;6216079;23;20407;-69
2024/01/18 13:58:22;;;;;;;0.73;0.73;;;;;;;;;;6216121;23;20445;-68
2024/01/18 14:00:51;;;;;;;0.97;0.97;;;;;;;;;;6215529;23;20450;-68
2024/01/18 14:03:19;;;;;;;0.60;0.60;;;;;;;;;;6216048;23;20391;-70
2024/01/18 14:05:46;;;;;;;1.10;1.10;;;;;;;;;;6215986;23;20367;-69
2024/01/18 14:08:12;;;;;;;1.00;1.00;;;;;;;;;;6216016;23;20384;-69
2024/01/18 14:10:38;;;;;;;1.00;1.00;;;;;;;;;;6216312;23;20719;-69
2024/01/18 14:13:06;;;;;;;1.20;1.20;;;;;;;;;;6216313;23;20423;-69
2024/01/18 14:15:33;;;;;;;1.00;1.00;;;;;;;;;;6216600;23;20391;-69
2024/01/18 14:17:59;;;;;;;1.10;1.10;;;;;;;;;;6215692;23;20371;-69
2024/01/18 14:20:25;;;;;;;1.20;1.20;;;;;;;;;;6215837;23;20391;-70
2024/01/18 14:22:51;;;;;;;0.93;0.93;;;;;;;;;;6215627;23;20845;-68
2024/01/18 14:25:17;;;;;;;1.07;1.07;;;;;;;;;;6189754;23;20381;-69
2024/01/18 14:27:43;;;;;;;2.73;2.53;;;;;;;;;;6215488;23;20699;-68
2024/01/18 14:30:10;;;;;;;1.57;1.57;;;;;;;;;;6215783;23;20375;-69
2024/01/18 14:32:37;;;;;;;1.37;1.33;;;;;;;;;;6215348;23;20458;-71
2024/01/18 14:35:03;;;;;;;1.30;1.30;;;;;;;;;;6215164;23;20928;-69
2024/01/18 14:37:29;;;;;;;1.80;1.70;;;;;;;;;;6215581;23;20374;-69
2024/01/18 14:39:55;;;;;;;1.40;1.40;;;;;;;;;;6215699;23;20457;-70
2024/01/18 14:42:21;;;;;;;1.57;1.57;;;;;;;;;;6215274;23;20383;-69
2024/01/18 14:44:48;;;;;;;1.60;1.60;;;;;;;;;;6214852;23;20801;-69